Time;durP1;ratioP1;P1;durP2;ratioP2;P2;SDS_P1;SDS_P2;PMS_P1;PMS_P2;Temp;Humidity;BMP_temperature;BMP_pressure;BME280_temperature;BME280_humidity;BME280_pressure;Samples;Min_cycle;Max_cycle;Signal;HPM_P1;HPM_P2
2022/06/08 00:00:46;;;;;;;;;;;;;;;16.07;100.00;99333.88;5152132;27;20506;-49
2022/06/08 00:03:13;;;;;;;;;;;;;;;16.00;100.00;99334.69;5152225;27;19929;-51
2022/06/08 00:05:40;;;;;;;;;;;;;;;16.03;100.00;99335.06;5152036;27;19923;-48
2022/06/08 00:08:06;;;;;;;;;;;;;;;15.94;100.00;99341.00;5152021;27;19930;-48
2022/06/08 00:10:32;;;;;;;;;;;;;;;15.94;100.00;99341.00;5151958;27;19973;-49
2022/06/08 00:12:58;;;;;;;;;;;;;;;15.93;100.00;99342.97;5151942;27;19962;-50
2022/06/08 00:15:26;;;;;;;;;;;;;;;15.93;100.00;99342.19;5152070;27;19946;-48
2022/06/08 00:17:52;;;;;;;;;;;;;;;15.92;100.00;99344.16;5152021;27;20044;-50
2022/06/08 00:20:18;;;;;;;;;;;;;;;15.87;100.00;99346.53;5151552;27;19958;-49
2022/06/08 00:22:44;;;;;;;;;;;;;;;15.85;100.00;99349.69;5151897;27;20013;-52
2022/06/08 00:25:10;;;;;;;;;;;;;;;15.85;100.00;99346.13;5151692;27;19945;-48
2022/06/08 00:27:36;;;;;;;;;;;;;;;15.86;100.00;99345.75;5151637;27;19923;-49
2022/06/08 00:30:03;;;;;;;;;;;;;;;15.83;100.00;99341.03;5152162;27;19922;-50
2022/06/08 00:32:30;;;;;;;;;;;;;;;15.84;100.00;99344.56;5151833;27;19930;-48
2022/06/08 00:34:56;;;;;;;;;;;;;;;15.84;100.00;99336.28;5151801;27;19927;-49
2022/06/08 00:37:23;;;;;;;;;;;;;;;15.87;100.00;99338.25;5151614;27;19946;-47
2022/06/08 00:39:49;;;;;;;;;;;;;;;15.80;100.00;99338.25;5151448;27;19923;-49
2022/06/08 00:42:16;;;;;;;;;;;;;;;15.77;100.00;99331.53;5151761;27;19933;-48
2022/06/08 00:44:44;;;;;;;;;;;;;;;15.77;100.00;99335.09;5152101;27;20013;-49
2022/06/08 00:47:13;;;;;;;;;;;;;;;15.72;100.00;99331.91;5151439;27;19930;-49
2022/06/08 00:49:42;;;;;;;;;;;;;;;15.68;100.00;99328.38;5151457;27;19948;-49
2022/06/08 00:52:09;;;;;;;;;;;;;;;15.68;100.00;99322.84;5151776;27;19929;-48
2022/06/08 00:54:36;;;;;;;;;;;;;;;15.64;100.00;99324.81;5151397;27;19983;-49
2022/06/08 00:57:05;;;;;;;;;;;;;;;15.55;100.00;99319.66;5151708;27;19923;-48
2022/06/08 00:59:31;;;;;;;;;;;;;;;15.56;100.00;99312.16;5151233;27;19930;-49
2022/06/08 01:01:57;;;;;;;;;;;;;;;15.52;100.00;99307.41;5151512;27;19972;-48
2022/06/08 01:04:23;;;;;;;;;;;;;;;15.54;100.00;99310.59;5151327;27;19923;-47
2022/06/08 01:06:53;;;;;;;;;;;;;;;15.43;100.00;99304.28;5151200;27;19922;-48
2022/06/08 01:09:22;;;;;;;;;;;;;;;15.54;100.00;99295.97;5151201;27;19930;-48
2022/06/08 01:11:48;;;;;;;;;;;;;;;15.57;100.00;99297.16;5151275;27;19945;-48
2022/06/08 01:14:16;;;;;;;;;;;;;;;15.50;100.00;99297.97;5151345;27;20017;-49
2022/06/08 01:16:44;;;;;;;;;;;;;;;15.51;100.00;99297.56;5151098;27;19923;-48
2022/06/08 01:19:11;;;;;;;;;;;;;;;15.54;100.00;99299.53;5151564;27;19945;-47
2022/06/08 01:21:51;;;;;;;;;;;;;;;15.51;100.00;99299.53;5150899;27;20381;-47
2022/06/08 01:24:17;;;;;;;;;;;;;;;15.35;100.00;99296.38;5151287;27;20313;-47
2022/06/08 01:26:44;;;;;;;;;;;;;;;15.43;100.00;99293.22;5150978;27;19930;-48
2022/06/08 01:29:16;;;;;;;;;;;;;;;15.43;100.00;99295.19;5150840;27;19923;-47
2022/06/08 01:31:46;;;;;;;;;;;;;;;15.46;100.00;99297.97;5151089;27;20288;-48
2022/06/08 01:34:17;;;;;;;;;;;;;;;15.47;100.00;99296.00;5153659;27;19923;-48
2022/06/08 01:36:52;;;;;;;;;;;;;;;15.37;100.00;99288.47;5154506;27;19967;-47
2022/06/08 01:39:27;;;;;;;;;;;;;;;15.19;100.00;99305.03;5154229;27;19923;-48
2022/06/08 01:42:03;;;;;;;;;;;;;;;15.42;100.00;99319.25;5154420;27;20017;-47
2022/06/08 01:45:28;;;;;;;;;;;;;;;15.47;100.00;99329.13;5154487;27;19923;-48
2022/06/08 01:47:31;;;;;;;;;;;;;;;15.59;100.00;99325.97;5154086;27;19923;-45
2022/06/08 01:50:00;;;;;;;;;;;;;;;15.62;100.00;99327.94;5154383;27;20305;-45
2022/06/08 01:52:32;;;;;;;;;;;;;;;15.56;100.00;99326.78;5154151;27;19923;-45
2022/06/08 01:55:03;;;;;;;;;;;;;;;15.55;100.00;99325.19;5154317;27;19923;-45
2022/06/08 01:57:45;;;;;;;;;;;;;;;15.74;100.00;99324.03;5154400;27;20324;-45
2022/06/08 02:00:13;;;;;;;;;;;;;;;15.62;100.00;99322.41;5154544;27;20348;-46
2022/06/08 02:02:44;;;;;;;;;;;;;;;15.72;100.00;99321.66;5153958;27;19923;-45
2022/06/08 02:05:14;;;;;;;;;;;;;;;15.77;100.00;99324.03;5154317;27;20005;-45
2022/06/08 02:07:42;;;;;;;;;;;;;;;15.72;100.00;99324.41;5153963;27;19936;-48
2022/06/08 02:10:15;;;;;;;;;;;;;;;15.84;100.00;99326.00;5154079;27;19929;-45
2022/06/08 02:12:44;;;;;;;;;;;;;;;15.87;100.00;99322.44;5153781;27;19930;-45
2022/06/08 02:15:12;;;;;;;;;;;;;;;15.81;100.00;99324.03;5153974;27;19923;-45
2022/06/08 02:17:41;;;;;;;;;;;;;;;15.79;100.00;99326.38;5153983;27;19930;-46
2022/06/08 02:20:10;;;;;;;;;;;;;;;15.82;100.00;99325.59;5153767;27;19923;-45
2022/06/08 02:22:38;;;;;;;;;;;;;;;15.82;100.00;99319.28;5154024;27;19974;-46
2022/06/08 02:25:07;;;;;;;;;;;;;;;15.83;100.00;99323.63;5153647;27;19923;-47
2022/06/08 02:27:36;;;;;;;;;;;;;;;16.05;100.00;99318.84;5153671;27;19922;-47
2022/06/08 02:30:06;;;;;;;;;;;;;;;16.18;100.00;99325.56;5153939;27;19923;-49
2022/06/08 02:35:20;;;;;;;;;;;;;;;16.51;100.00;99326.25;5153844;27;19946;-47
2022/06/08 02:37:50;;;;;;;;;;;;;;;16.61;100.00;99315.13;5153538;27;19923;-45
2022/06/08 02:40:19;;;;;;;;;;;;;;;16.62;100.00;99304.84;5153419;27;19929;-47
2022/06/08 02:42:47;;;;;;;;;;;;;;;16.76;100.00;99291.00;5153319;27;19975;-46
2022/06/08 02:45:15;;;;;;;;;;;;;;;16.79;100.00;99276.31;5153626;27;19923;-45
2022/06/08 02:47:43;;;;;;;;;;;;;;;16.70;100.00;99265.66;5153207;27;19927;-47
2022/06/08 02:50:10;;;;;;;;;;;;;;;16.86;100.00;99261.63;5153398;27;19922;-45
2022/06/08 02:52:36;;;;;;;;;;;;;;;16.93;100.00;99259.63;5153221;27;19926;-45
2022/06/08 02:55:04;;;;;;;;;;;;;;;16.96;100.00;99243.38;5153250;27;19923;-45
2022/06/08 02:57:37;;;;;;;;;;;;;;;17.14;100.00;99242.06;5153197;27;20305;-46
2022/06/08 03:00:08;;;;;;;;;;;;;;;17.25;100.00;99222.59;5153079;27;19923;-45
2022/06/08 03:02:35;;;;;;;;;;;;;;;17.38;100.00;99215.34;5153310;27;19923;-46
2022/06/08 03:05:08;;;;;;;;;;;;;;;17.51;100.00;99210.09;5153154;27;19923;-46
2022/06/08 03:07:36;;;;;;;;;;;;;;;17.82;100.00;99165.84;5152956;27;20374;-45
2022/06/08 03:10:05;;;;;;;;;;;;;;;17.89;100.00;99135.25;5152815;27;19923;-46
2022/06/08 03:12:32;;;;;;;;;;;;;;;18.40;100.00;99096.53;5152753;27;20022;-47
2022/06/08 03:14:59;;;;;;;;;;;;;;;18.66;100.00;99020.75;5153105;27;20404;-46
2022/06/08 03:17:27;;;;;;;;;;;;;;;19.05;100.00;98899.81;5152957;27;19927;-46
2022/06/08 03:19:53;;;;;;;;;;;;;;;19.32;100.00;98801.59;5152775;27;19923;-46
2022/06/08 03:22:19;;;;;;;;;;;;;;;19.75;100.00;98665.84;5152658;27;19923;-45
2022/06/08 03:24:45;;;;;;;;;;;;;;;20.01;100.00;98588.06;5152956;27;19923;-46
2022/06/08 03:27:12;;;;;;;;;;;;;;;20.25;100.00;98499.47;5152586;27;19923;-46
2022/06/08 03:29:38;;;;;;;;;;;;;;;20.64;100.00;98383.25;5152593;27;20426;-46
2022/06/08 03:32:04;;;;;;;;;;;;;;;20.98;100.00;98293.25;5152548;27;20386;-47
2022/06/08 03:34:31;;;;;;;;;;;;;;;21.33;100.00;98151.72;5152512;27;19923;-50
2022/06/08 03:36:57;;;;;;;;;;;;;;;21.72;100.00;98085.13;5152268;27;19937;-46
2022/06/08 03:39:23;;;;;;;;;;;;;;;21.96;100.00;98050.97;5152478;27;19923;-47
2022/06/08 03:41:49;;;;;;;;;;;;;;;22.25;100.00;97989.81;5152412;27;19927;-48
2022/06/08 03:44:15;;;;;;;;;;;;;;;22.40;100.00;97945.25;5152609;27;19926;-49
2022/06/08 03:46:43;;;;;;;;;;;;;;;22.54;100.00;97918.63;5152639;27;19965;-48
2022/06/08 03:49:10;;;;;;;;;;;;;;;22.48;100.00;97828.34;5152284;27;19922;-47
2022/06/08 03:51:38;;;;;;;;;;;;;;;22.36;100.00;97876.84;5152513;27;20424;-47
2022/06/08 03:54:06;;;;;;;;;;;;;;;22.49;100.00;97916.47;5152161;27;20532;-49
2022/06/08 03:56:32;;;;;;;;;;;;;;;22.31;100.00;97817.63;5151740;27;19926;-50
2022/06/08 03:58:59;;;;;;;;;;;;;;;22.56;100.00;97793.25;5152080;27;19923;-49
2022/06/08 04:01:25;;;;;;;;;;;;;;;22.68;100.00;97799.78;5152093;27;19930;-50
2022/06/08 04:03:52;;;;;;;;;;;;;;;22.99;100.00;97811.31;5152134;27;20381;-47
2022/06/08 04:06:18;;;;;;;;;;;;;;;23.32;100.00;97771.16;5152115;27;20019;-49
2022/06/08 04:08:45;;;;;;;;;;;;;;;23.44;100.00;97764.50;5152218;27;19927;-48
2022/06/08 04:11:10;;;;;;;;;;;;;;;22.90;100.00;97769.47;5152485;27;20369;-49
2022/06/08 04:13:37;;;;;;;;;;;;;;;23.70;100.00;97767.44;5152006;27;19929;-48
2022/06/08 04:16:03;;;;;;;;;;;;;;;22.95;100.00;97765.25;5151970;27;19923;-48
2022/06/08 04:18:29;;;;;;;;;;;;;;;23.83;100.00;97755.16;5152147;27;20374;-48
2022/06/08 04:20:56;;;;;;;;;;;;;;;24.14;100.00;97768.50;5151833;27;20005;-49
2022/06/08 04:23:24;;;;;;;;;;;;;;;24.75;100.00;97784.47;5151776;27;20382;-48
2022/06/08 04:25:51;;;;;;;;;;;;;;;24.54;100.00;97790.13;5151921;27;19927;-49
2022/06/08 04:28:17;;;;;;;;;;;;;;;25.19;100.00;97815.00;5151795;27;20335;-49
2022/06/08 04:30:43;;;;;;;;;;;;;;;25.36;100.00;97823.53;5151655;27;19929;-48
2022/06/08 04:33:09;;;;;;;;;;;;;;;25.62;100.00;97861.97;5151580;27;19923;-49
2022/06/08 04:35:35;;;;;;;;;;;;;;;26.19;100.00;97845.03;5151557;27;19930;-51
2022/06/08 04:38:01;;;;;;;;;;;;;;;26.75;100.00;97845.25;5151490;27;19923;-49
2022/06/08 04:40:27;;;;;;;;;;;;;;;26.79;100.00;97926.56;5151743;27;19923;-49
2022/06/08 04:42:55;;;;;;;;;;;;;;;26.91;100.00;97925.28;5151705;27;20278;-49
2022/06/08 04:45:21;;;;;;;;;;;;;;;26.77;100.00;97995.78;5151700;27;19927;-49
2022/06/08 04:47:47;;;;;;;;;;;;;;;27.19;100.00;97972.44;5151340;27;19923;-51
2022/06/08 04:50:13;;;;;;;;;;;;;;;27.19;100.00;97998.56;5151740;27;19975;-50
2022/06/08 04:52:39;;;;;;;;;;;;;;;27.61;100.00;98005.31;5151405;27;20420;-49
2022/06/08 04:55:07;;;;;;;;;;;;;;;28.10;100.00;98007.94;5151530;27;19927;-51
2022/06/08 04:57:36;;;;;;;;;;;;;;;27.33;100.00;98024.94;5151124;27;19923;-49
2022/06/08 05:00:04;;;;;;;;;;;;;;;27.26;100.00;97979.63;5151345;27;20405;-52
2022/06/08 05:02:47;;;;;;;;;;;;;;;27.30;100.00;97997.06;5151074;27;19927;-48
2022/06/08 05:05:15;;;;;;;;;;;;;;;26.33;100.00;97940.88;5151272;27;20004;-49
2022/06/08 05:07:41;;;;;;;;;;;;;;;26.95;100.00;97972.84;5151839;27;19923;-51
2022/06/08 05:10:08;;;;;;;;;;;;;;;28.04;100.00;97967.72;5154646;27;20305;-49
2022/06/08 05:12:36;;;;;;;;;;;;;;;28.77;100.00;98021.19;5154999;27;19922;-49
2022/06/08 05:15:05;;;;;;;;;;;;;;;28.12;100.00;98059.69;5154618;27;20522;-50
2022/06/08 05:17:32;;;;;;;;;;;;;;;27.35;100.00;98025.19;5155010;27;19946;-51
2022/06/08 05:19:57;;;;;;;;;;;;;;;26.86;100.00;97978.72;5154443;27;20385;-50
2022/06/08 05:22:23;;;;;;;;;;;;;;;27.09;100.00;97985.97;5154626;27;19975;-52
2022/06/08 05:24:49;;;;;;;;;;;;;;;25.89;100.00;97897.16;5154434;27;19923;-49
2022/06/08 05:27:17;;;;;;;;;;;;;;;26.53;100.00;97890.16;5154732;27;19927;-52
2022/06/08 05:29:43;;;;;;;;;;;;;;;26.15;100.00;97866.94;5154302;27;20017;-52
2022/06/08 05:32:10;;;;;;;;;;;;;;;27.09;100.00;97887.53;5154430;27;20309;-48
2022/06/08 05:34:36;;;;;;;;;;;;;;;27.95;100.00;97892.69;5154468;27;19923;-48
2022/06/08 05:37:02;;;;;;;;;;;;;;;28.80;100.00;97967.31;5154299;27;19945;-52
2022/06/08 05:39:28;;;;;;;;;;;;;;;28.10;100.00;97997.44;5154442;27;19923;-50
2022/06/08 05:41:54;;;;;;;;;;;;;;;28.84;100.00;98026.28;5154136;27;19976;-53
2022/06/08 05:44:20;;;;;;;;;;;;;;;28.91;100.00;98045.50;5154484;27;19922;-52
2022/06/08 05:46:47;;;;;;;;;;;;;;;28.58;100.00;97970.97;5154113;27;20310;-51
2022/06/08 05:49:14;;;;;;;;;;;;;;;28.89;100.00;98061.41;5154211;27;20317;-50
2022/06/08 05:51:39;;;;;;;;;;;;;;;29.69;100.00;98080.38;5154103;27;19923;-50
2022/06/08 05:54:06;;;;;;;;;;;;;;;29.50;100.00;98088.66;5154237;27;19927;-52
2022/06/08 05:56:32;;;;;;;;;;;;;;;29.65;100.00;98105.28;5154151;27;19930;-51
2022/06/08 05:58:58;;;;;;;;;;;;;;;30.02;100.00;98073.72;5154218;27;20413;-50
2022/06/08 06:01:24;;;;;;;;;;;;;;;30.43;100.00;98110.47;5153670;27;19948;-50
2022/06/08 06:03:51;;;;;;;;;;;;;;;31.35;100.00;98160.03;5153778;27;19923;-52
2022/06/08 06:06:17;;;;;;;;;;;;;;;31.53;100.00;98190.50;5153970;27;19923;-53
2022/06/08 06:08:45;;;;;;;;;;;;;;;30.64;100.00;98217.50;5153635;27;19923;-51
2022/06/08 06:11:13;;;;;;;;;;;;;;;30.44;100.00;98162.88;5153844;27;19923;-53
2022/06/08 06:13:38;;;;;;;;;;;;;;;30.89;100.00;98199.34;5153400;27;20025;-51
2022/06/08 06:16:05;;;;;;;;;;;;;;;31.75;100.00;98180.19;5153705;27;19923;-49
2022/06/08 06:18:31;;;;;;;;;;;;;;;30.89;100.00;98176.72;5153065;27;19923;-50
2022/06/08 06:20:57;;;;;;;;;;;;;;;29.96;100.00;98166.28;5153485;27;19930;-52
2022/06/08 06:23:25;;;;;;;;;;;;;;;29.64;100.00;98158.19;5153483;27;19923;-51
2022/06/08 06:25:51;;;;;;;;;;;;;;;28.81;100.00;98080.91;5153500;27;19923;-52
2022/06/08 06:28:17;;;;;;;;;;;;;;;29.28;100.00;98073.34;5153542;27;19933;-51
2022/06/08 06:30:43;;;;;;;;;;;;;;;28.60;100.00;98067.09;5153552;27;20405;-50
2022/06/08 06:33:10;;;;;;;;;;;;;;;28.35;100.00;98029.41;5153471;27;20389;-48
2022/06/08 06:35:36;;;;;;;;;;;;;;;28.20;100.00;98045.84;5153376;27;19923;-51
2022/06/08 06:38:03;;;;;;;;;;;;;;;28.47;100.00;97990.75;5153415;27;19946;-51
2022/06/08 06:40:30;;;;;;;;;;;;;;;28.21;100.00;98004.34;5153091;27;20347;-52
2022/06/08 06:42:56;;;;;;;;;;;;;;;28.60;100.00;98019.16;5153338;27;19927;-49
2022/06/08 06:45:22;;;;;;;;;;;;;;;28.71;100.00;98057.09;5153107;27;20030;-51
2022/06/08 06:47:49;;;;;;;;;;;;;;;28.45;100.00;98068.66;5153005;27;19923;-51
2022/06/08 06:50:16;;;;;;;;;;;;;;;28.82;100.00;98046.56;5152808;27;19927;-52
2022/06/08 06:52:44;;;;;;;;;;;;;;;29.75;100.00;98083.94;5152890;27;19967;-51
2022/06/08 06:55:17;;;;;;;;;;;;;;;30.19;100.00;98119.66;5153028;27;19937;-50
2022/06/08 06:57:43;;;;;;;;;;;;;;;30.05;100.00;98120.72;5153236;27;19938;-49
2022/06/08 07:00:10;;;;;;;;;;;;;;;30.74;100.00;98114.06;5153122;27;19923;-49
2022/06/08 07:02:36;;;;;;;;;;;;;;;31.22;100.00;98165.56;5152772;27;19922;-53
2022/06/08 07:05:01;;;;;;;;;;;;;;;32.40;100.00;98147.84;5153050;27;19934;-49
2022/06/08 07:07:27;;;;;;;;;;;;;;;32.64;100.00;98168.91;5152514;27;20275;-51
2022/06/08 07:09:53;;;;;;;;;;;;;;;33.28;100.00;98217.88;5152851;27;19922;-52
2022/06/08 07:12:19;;;;;;;;;;;;;;;33.37;100.00;98282.03;5152557;27;19929;-52
2022/06/08 07:14:46;;;;;;;;;;;;;;;33.16;100.00;98293.22;5152655;27;19927;-52
2022/06/08 07:17:12;;;;;;;;;;;;;;;32.90;100.00;98308.06;5152525;27;19923;-50
2022/06/08 07:19:38;;;;;;;;;;;;;;;33.09;100.00;98299.56;5152678;27;20482;-51
2022/06/08 07:22:04;;;;;;;;;;;;;;;34.02;100.00;98282.66;5152481;27;20426;-51
2022/06/08 07:24:32;;;;;;;;;;;;;;;33.76;100.00;98249.31;5152356;27;19923;-53
2022/06/08 07:26:59;;;;;;;;;;;;;;;33.89;100.00;98249.31;5152637;27;19923;-51
2022/06/08 07:29:25;;;;;;;;;;;;;;;33.37;100.00;98295.47;5152305;27;19934;-52
2022/06/08 07:31:52;;;;;;;;;;;;;;;34.52;100.00;98278.00;5151646;27;19946;-52
2022/06/08 07:34:18;;;;;;;;;;;;;;;32.71;100.00;98296.72;5152214;27;20428;-52
2022/06/08 07:36:45;;;;;;;;;;;;;;;33.04;100.00;98267.09;5152549;27;20321;-50
2022/06/08 07:39:12;;;;;;;;;;;;;;;32.78;100.00;98269.81;5152275;27;19923;-52
2022/06/08 07:41:38;;;;;;;;;;;;;;;33.07;100.00;98276.59;5152221;27;19927;-52
2022/06/08 07:44:04;;;;;;;;;;;;;;;34.04;100.00;98256.53;5152124;27;20275;-49
2022/06/08 07:46:30;;;;;;;;;;;;;;;34.39;100.00;98269.47;5152261;27;19923;-51
2022/06/08 07:51:41;;;;;;;;;;;;;;;31.97;100.00;98259.28;5152308;27;19965;-51
2022/06/08 07:54:07;;;;;;;;;;;;;;;33.37;100.00;98253.63;5152652;27;19971;-51
2022/06/08 07:56:33;;;;;;;;;;;;;;;34.60;100.00;98258.16;5152116;27;19976;-52
2022/06/08 07:58:59;;;;;;;;;;;;;;;34.72;100.00;98261.50;5152418;27;19922;-50
2022/06/08 08:01:25;;;;;;;;;;;;;;;34.84;100.00;98283.47;5151786;27;19934;-53
2022/06/08 08:03:52;;;;;;;;;;;;;;;31.78;100.00;98306.63;5151986;27;19923;-52
2022/06/08 08:06:18;;;;;;;;;;;;;;;33.32;100.00;98302.00;5151931;27;20344;-49
2022/06/08 08:08:44;;;;;;;;;;;;;;;33.08;100.00;98302.91;5151893;27;19929;-49
2022/06/08 08:11:10;;;;;;;;;;;;;;;33.44;100.00;98304.09;5151691;27;19926;-51
2022/06/08 08:13:37;;;;;;;;;;;;;;;33.12;100.00;98287.09;5151822;27;19923;-53
2022/06/08 08:16:03;;;;;;;;;;;;;;;33.21;100.00;98274.56;5151672;27;20025;-52
2022/06/08 08:18:31;;;;;;;;;;;;;;;33.31;100.00;98287.03;5151503;27;19930;-49
2022/06/08 08:20:57;;;;;;;;;;;;;;;33.30;100.00;98282.66;5151737;27;19973;-49
2022/06/08 08:23:23;;;;;;;;;;;;;;;33.94;100.00;98278.91;5151619;27;19923;-52
2022/06/08 08:25:49;;;;;;;;;;;;;;;32.81;100.00;98255.28;5151626;27;19922;-52
2022/06/08 08:28:15;;;;;;;;;;;;;;;32.66;100.00;98243.69;5151476;27;19927;-51
2022/06/08 08:30:41;;;;;;;;;;;;;;;33.04;100.00;98267.09;5151761;27;19923;-53
2022/06/08 08:33:07;;;;;;;;;;;;;;;33.73;100.00;98251.16;5151455;27;20419;-52
2022/06/08 08:35:33;;;;;;;;;;;;;;;33.68;100.00;98271.16;5151216;27;19923;-52
2022/06/08 08:38:00;;;;;;;;;;;;;;;31.45;100.00;98205.78;5151543;27;19923;-52
2022/06/08 08:40:41;;;;;;;;;;;;;;;32.30;100.00;98249.56;5151519;27;19927;-50
2022/06/08 08:43:09;;;;;;;;;;;;;;;32.48;100.00;98255.81;5154143;27;20049;-52
2022/06/08 08:45:40;;;;;;;;;;;;;;;32.04;100.00;98246.56;5155328;27;20105;-48
2022/06/08 08:48:09;;;;;;;;;;;;;;;32.30;100.00;98252.41;5155133;27;20335;-51
2022/06/08 08:50:37;;;;;;;;;;;;;;;32.56;100.00;98259.56;5155094;27;19926;-53
2022/06/08 08:53:11;;;;;;;;;;;;;;;31.46;100.00;98261.91;5155091;27;19923;-52
2022/06/08 08:55:40;;;;;;;;;;;;;;;33.96;100.00;98256.41;5154623;27;19926;-53
2022/06/08 08:58:11;;;;;;;;;;;;;;;33.55;100.00;98251.25;5155043;27;19929;-53
2022/06/08 09:00:38;;;;;;;;;;;;;;;34.71;100.00;98300.59;5154848;27;19962;-50
2022/06/08 09:03:20;;;;;;;;;;;;;;;33.03;100.00;98276.16;5155128;27;19934;-51
2022/06/08 09:05:48;;;;;;;;;;;;;;;33.74;100.00;98207.19;5154671;27;19922;-53
2022/06/08 09:08:15;;;;;;;;;;;;;;;33.46;100.00;98269.47;5154511;27;19929;-52
2022/06/08 09:10:42;;;;;;;;;;;;;;;33.49;100.00;98291.16;5154507;27;19927;-52
2022/06/08 09:13:10;;;;;;;;;;;;;;;33.96;100.00;98313.25;5154669;27;20417;-50
2022/06/08 09:15:44;;;;;;;;;;;;;;;34.22;100.00;98306.03;5154675;27;20408;-49
2022/06/08 09:18:17;;;;;;;;;;;;;;;33.42;100.00;98286.84;5154778;27;19975;-50
2022/06/08 09:20:43;;;;;;;;;;;;;;;34.71;100.00;98294.91;5154835;27;19930;-52
2022/06/08 09:23:20;;;;;;;;;;;;;;;34.26;100.00;98309.34;5154436;27;19930;-49
2022/06/08 09:26:00;;;;;;;;;;;;;;;34.68;100.00;98293.16;5154637;27;19927;-49
2022/06/08 09:28:27;;;;;;;;;;;;;;;31.75;100.00;98305.63;5154348;27;19971;-51
2022/06/08 09:30:53;;;;;;;;;;;;;;;32.44;100.00;98275.22;5154391;27;19923;-49
2022/06/08 09:33:24;;;;;;;;;;;;;;;30.85;100.00;98268.81;5154223;27;20305;-50
2022/06/08 09:35:52;;;;;;;;;;;;;;;31.14;100.00;98239.00;5154026;27;20404;-51
2022/06/08 09:38:20;;;;;;;;;;;;;;;30.79;100.00;98223.63;5154209;27;19923;-50
2022/06/08 09:40:50;;;;;;;;;;;;;;;29.54;100.00;98168.97;5154302;27;19923;-49
2022/06/08 09:43:46;;;;;;;;;;;;;;;29.77;100.00;98225.41;5154659;27;19945;-53
2022/06/08 09:46:15;;;;;;;;;;;;;;;29.91;100.00;98164.22;5050047;28;19925;-48
2022/06/08 09:51:52;;;;;;;;;;;;;;;31.87;100.00;98215.59;5154393;27;20368;-49
2022/06/08 09:54:23;;;;;;;;;;;;;;;31.20;100.00;98233.28;5144575;27;19923;-49
2022/06/08 09:56:54;;;;;;;;;;;;;;;30.04;100.00;98223.75;5154218;27;19976;-51
2022/06/08 09:59:30;;;;;;;;;;;;;;;29.05;100.00;98145.25;5153595;27;20013;-50
2022/06/08 10:02:00;;;;;;;;;;;;;;;28.36;100.00;98076.06;5153788;27;19972;-50
2022/06/08 10:04:40;;;;;;;;;;;;;;;28.79;100.00;98097.56;5153486;27;19922;-49
2022/06/08 10:07:12;;;;;;;;;;;;;;;29.50;100.00;98137.44;5153590;27;19923;-50
2022/06/08 10:09:47;;;;;;;;;;;;;;;29.29;100.00;98122.88;5153783;27;20412;-49
2022/06/08 10:12:18;;;;;;;;;;;;;;;29.81;100.00;98118.56;5153521;27;19929;-50
2022/06/08 10:14:48;;;;;;;;;;;;;;;29.35;100.00;98173.66;5153915;27;19922;-51
2022/06/08 10:17:17;;;;;;;;;;;;;;;29.87;100.00;98160.91;5153681;27;20013;-52
2022/06/08 10:19:49;;;;;;;;;;;;;;;30.95;100.00;98185.88;5154050;27;20340;-49
2022/06/08 10:22:15;;;;;;;;;;;;;;;29.50;100.00;98168.50;5153557;27;20034;-51
2022/06/08 10:24:45;;;;;;;;;;;;;;;29.86;100.00;98156.56;5153402;27;19923;-50
2022/06/08 10:27:14;;;;;;;;;;;;;;;29.86;100.00;98167.88;5153490;27;20013;-50
2022/06/08 10:29:45;;;;;;;;;;;;;;;30.92;100.00;98203.94;5153283;27;20400;-49
2022/06/08 10:32:14;;;;;;;;;;;;;;;31.52;100.00;98239.94;5153592;27;19927;-49
2022/06/08 10:34:41;;;;;;;;;;;;;;;30.51;100.00;98195.50;5153304;27;19935;-53
2022/06/08 10:37:10;;;;;;;;;;;;;;;30.92;100.00;98203.16;5153321;27;19929;-48
2022/06/08 10:39:36;;;;;;;;;;;;;;;30.53;100.00;98200.63;5153085;27;19927;-52
2022/06/08 10:45:30;;;;;;;;;;;;;;;31.13;100.00;98195.78;5153166;27;19930;-49
2022/06/08 10:47:58;;;;;;;;;;;;;;;30.06;100.00;98238.16;5152781;27;19922;-49
2022/06/08 10:50:28;;;;;;;;;;;;;;;31.21;100.00;98232.00;5153201;27;20347;-49
2022/06/08 10:54:52;;;;;;;;;;;;;;;31.27;100.00;98195.91;5153118;27;20005;-51
2022/06/08 10:55:42;;;;;;;;;;;;;;;30.32;100.00;98220.03;5152887;27;20360;-50
2022/06/08 10:58:12;;;;;;;;;;;;;;;30.51;100.00;98174.94;5152820;27;19922;-49
2022/06/08 11:00:58;;;;;;;;;;;;;;;30.47;100.00;98200.66;5152715;27;19927;-51
2022/06/08 11:03:46;;;;;;;;;;;;;;;30.84;100.00;98194.50;5153022;27;19922;-50
2022/06/08 11:06:32;;;;;;;;;;;;;;;29.77;100.00;98229.00;5152767;27;20382;-50
2022/06/08 11:08:59;;;;;;;;;;;;;;;30.75;100.00;98191.19;5152865;27;19975;-51
2022/06/08 11:11:38;;;;;;;;;;;;;;;29.95;100.00;98204.28;5152708;27;20014;-52
2022/06/08 11:14:24;;;;;;;;;;;;;;;30.71;100.00;98197.91;5152741;27;19926;-50
2022/06/08 11:16:52;;;;;;;;;;;;;;;30.14;100.00;98227.81;5152657;27;19923;-51
2022/06/08 11:19:19;;;;;;;;;;;;;;;29.54;100.00;98210.56;5152476;27;19923;-51
2022/06/08 11:21:50;;;;;;;;;;;;;;;29.78;100.00;98171.22;5152732;27;19927;-50
2022/06/08 11:24:20;;;;;;;;;;;;;;;29.96;100.00;98184.00;5152420;27;19923;-50
2022/06/08 11:26:52;;;;;;;;;;;;;;;29.64;100.00;98168.72;5152544;27;20343;-48
2022/06/08 11:29:37;;;;;;;;;;;;;;;29.18;100.00;98181.41;5152362;27;19923;-51
2022/06/08 11:32:03;;;;;;;;;;;;;;;30.03;100.00;98193.97;5152255;27;20398;-51
2022/06/08 11:34:42;;;;;;;;;;;;;;;30.82;100.00;98142.53;5152177;27;19923;-52
2022/06/08 11:37:15;;;;;;;;;;;;;;;30.72;100.00;98173.22;5152123;27;19971;-48
2022/06/08 11:39:47;;;;;;;;;;;;;;;30.76;100.00;98173.75;5152408;27;19961;-48
2022/06/08 11:42:22;;;;;;;;;;;;;;;30.93;100.00;98142.47;5152214;27;20385;-50
2022/06/08 11:44:50;;;;;;;;;;;;;;;30.69;100.00;98132.63;5152413;27;19965;-51
2022/06/08 11:47:18;;;;;;;;;;;;;;;30.29;100.00;98144.75;5152221;27;19923;-51
2022/06/08 11:49:46;;;;;;;;;;;;;;;30.88;100.00;98135.53;5152260;27;19927;-51
2022/06/08 11:52:21;;;;;;;;;;;;;;;30.52;100.00;98105.75;5152112;27;19975;-49
2022/06/08 11:54:58;;;;;;;;;;;;;;;30.06;100.00;98142.06;5151853;27;19922;-51
2022/06/08 11:57:24;;;;;;;;;;;;;;;28.97;100.00;98087.81;5152295;27;19923;-50
2022/06/08 11:59:51;;;;;;;;;;;;;;;29.12;100.00;98093.94;5152095;27;19952;-52
2022/06/08 12:02:19;;;;;;;;;;;;;;;29.26;100.00;98061.06;5152538;27;19961;-53
2022/06/08 12:04:47;;;;;;;;;;;;;;;28.60;100.00;98052.25;5152163;27;19922;-50
2022/06/08 12:07:28;;;;;;;;;;;;;;;28.98;100.00;98070.34;5152248;27;19926;-52
2022/06/08 12:09:54;;;;;;;;;;;;;;;29.37;100.00;98068.72;5151705;27;19923;-51
2022/06/08 12:12:22;;;;;;;;;;;;;;;28.64;100.00;98083.75;5152011;27;20073;-51
2022/06/08 12:14:48;;;;;;;;;;;;;;;28.95;100.00;98101.66;5151972;27;20408;-52
2022/06/08 12:17:24;;;;;;;;;;;;;;;28.75;100.00;98071.69;5151245;27;19923;-51
2022/06/08 12:19:53;;;;;;;;;;;;;;;29.12;100.00;98070.59;5151879;27;20378;-51
2022/06/08 12:22:20;;;;;;;;;;;;;;;28.47;100.00;98066.88;5151678;27;19967;-51
2022/06/08 12:25:01;;;;;;;;;;;;;;;28.83;100.00;98053.72;5151664;27;19979;-48
2022/06/08 12:27:27;;;;;;;;;;;;;;;28.43;100.00;98038.16;5151776;27;19976;-51
2022/06/08 12:29:54;;;;;;;;;;;;;;;28.52;100.00;98054.78;5151508;27;19927;-52
2022/06/08 12:32:23;;;;;;;;;;;;;;;28.69;100.00;98020.97;5151654;27;19938;-51
2022/06/08 12:34:50;;;;;;;;;;;;;;;29.13;100.00;98055.22;5151822;27;19929;-51
2022/06/08 12:37:32;;;;;;;;;;;;;;;28.52;100.00;98028.66;5152026;27;20269;-52
2022/06/08 12:40:02;;;;;;;;;;;;;;;28.64;100.00;98038.63;5131024;27;19971;-52
2022/06/08 12:42:29;;;;;;;;;;;;;;;28.49;100.00;98013.56;5151446;27;19923;-49
2022/06/08 12:44:58;;;;;;;;;;;;;;;28.56;100.00;97990.47;5151267;27;19923;-52
2022/06/08 12:47:26;;;;;;;;;;;;;;;29.01;100.00;98004.44;5151619;27;20289;-51
2022/06/08 12:49:56;;;;;;;;;;;;;;;28.51;100.00;97971.50;5151304;27;19923;-51
2022/06/08 12:52:23;;;;;;;;;;;;;;;28.47;100.00;98001.25;5151316;27;19923;-50
2022/06/08 12:54:50;;;;;;;;;;;;;;;28.07;100.00;98000.50;5151379;27;20309;-52